createdAt,value
2022-07-27T00:01:51.621Z,97045.00
2022-07-27T00:04:21.569Z,97042.00
2022-07-27T00:06:48.950Z,97042.00
2022-07-27T00:09:19.565Z,97043.00
2022-07-27T00:11:48.629Z,97045.00
2022-07-27T00:14:17.125Z,97041.00
2022-07-27T00:16:44.039Z,97042.00
2022-07-27T00:19:11.431Z,97036.00
2022-07-27T00:21:44.432Z,97043.00
2022-07-27T00:24:13.091Z,97042.00
2022-07-27T00:26:39.960Z,97041.00
2022-07-27T00:29:06.931Z,97049.00
2022-07-27T00:31:34.071Z,97048.00
2022-07-27T00:34:01.083Z,97053.00
2022-07-27T00:36:27.976Z,97045.00
2022-07-27T00:38:54.811Z,97046.00
2022-07-27T00:41:21.652Z,97046.00
2022-07-27T00:43:58.244Z,97041.00
2022-07-27T00:46:27.399Z,97042.00
2022-07-27T00:48:54.755Z,97038.00
2022-07-27T00:51:22.644Z,97036.00
2022-07-27T00:53:51.754Z,97034.00
2022-07-27T00:56:19.481Z,97034.00
2022-07-27T00:58:51.685Z,97036.00
2022-07-27T01:01:19.604Z,97033.00
2022-07-27T01:03:48.220Z,97035.00
2022-07-27T01:06:16.308Z,97027.00
2022-07-27T01:08:46.757Z,97038.00
2022-07-27T01:11:14.608Z,97033.00
2022-07-27T01:13:43.283Z,97028.00
2022-07-27T01:16:10.407Z,97027.00
2022-07-27T01:18:40.030Z,97025.00
2022-07-27T01:21:09.556Z,97015.00
2022-07-27T01:23:37.333Z,97014.00
2022-07-27T01:26:05.715Z,97016.00
2022-07-27T01:28:32.591Z,97007.00
2022-07-27T01:30:59.581Z,97002.00
2022-07-27T01:33:26.501Z,97002.00
2022-07-27T01:35:56.315Z,97001.00
2022-07-27T01:38:23.679Z,97002.00
2022-07-27T01:40:52.494Z,96993.00
2022-07-27T01:43:19.783Z,96988.00
2022-07-27T01:45:46.961Z,96989.00
2022-07-27T01:48:14.139Z,96993.00
2022-07-27T01:50:41.214Z,96988.00
2022-07-27T01:53:14.407Z,96985.00
2022-07-27T01:55:41.256Z,96983.00
2022-07-27T01:58:09.302Z,96978.00
2022-07-27T02:00:36.973Z,96981.00
2022-07-27T02:03:07.470Z,96981.00
2022-07-27T02:05:35.291Z,96977.00
2022-07-27T02:08:02.691Z,96976.00
2022-07-27T02:10:29.704Z,96980.00
2022-07-27T02:12:56.553Z,96977.00
2022-07-27T02:15:27.541Z,96989.00
2022-07-27T02:17:57.817Z,96987.00
2022-07-27T02:20:25.760Z,96991.00
2022-07-27T02:22:53.149Z,96997.00
2022-07-27T02:25:20.482Z,96997.00
2022-07-27T02:27:48.875Z,96996.00
2022-07-27T02:30:17.736Z,96997.00
2022-07-27T02:32:45.173Z,96992.00
2022-07-27T02:35:19.502Z,96976.00
2022-07-27T02:37:48.999Z,96980.00
2022-07-27T02:40:18.676Z,96988.00
2022-07-27T02:42:46.907Z,96989.00
2022-07-27T02:45:15.558Z,96988.00
2022-07-27T02:47:43.765Z,96988.00
2022-07-27T02:50:11.283Z,96997.00
2022-07-27T02:52:38.605Z,96987.00
2022-07-27T02:55:06.916Z,96986.00
2022-07-27T02:57:35.971Z,96992.00
2022-07-27T03:00:09.333Z,96992.00
2022-07-27T03:02:36.586Z,96993.00
2022-07-27T03:05:10.369Z,96993.00
2022-07-27T03:07:37.591Z,96990.00
2022-07-27T03:10:05.280Z,96984.00
2022-07-27T03:12:32.711Z,96983.00
2022-07-27T03:14:59.834Z,96984.00
2022-07-27T03:17:26.758Z,96990.00
2022-07-27T03:19:53.680Z,96988.00
2022-07-27T03:22:20.654Z,96981.00
2022-07-27T03:24:47.509Z,96982.00
2022-07-27T03:27:14.353Z,96986.00
2022-07-27T03:29:41.359Z,96989.00
2022-07-27T03:32:08.253Z,96987.00
2022-07-27T03:34:35.107Z,96989.00
2022-07-27T03:37:01.934Z,96990.00
2022-07-27T03:39:28.742Z,96998.00
2022-07-27T03:41:56.074Z,96996.00
2022-07-27T03:44:22.917Z,96996.00
2022-07-27T03:46:49.746Z,96989.00
2022-07-27T03:49:16.774Z,97000.00
2022-07-27T03:51:43.754Z,97004.00
2022-07-27T03:54:10.847Z,97012.00
2022-07-27T03:56:37.684Z,97002.00
2022-07-27T03:59:04.628Z,97003.00
2022-07-27T04:01:31.522Z,97003.00
2022-07-27T04:03:58.421Z,97001.00
2022-07-27T04:06:25.751Z,96999.00
2022-07-27T04:08:57.540Z,97004.00
2022-07-27T04:11:29.101Z,97009.00
2022-07-27T04:13:56.707Z,97000.00
2022-07-27T04:16:24.165Z,97004.00
2022-07-27T04:18:53.367Z,97007.00
2022-07-27T04:21:20.806Z,97008.00
2022-07-27T04:23:47.785Z,96992.00
2022-07-27T04:26:15.702Z,97007.00
2022-07-27T04:28:42.505Z,97007.00
2022-07-27T04:31:09.491Z,97010.00
2022-07-27T04:33:36.397Z,97008.00
2022-07-27T04:36:03.568Z,97000.00
2022-07-27T04:38:30.496Z,97010.00
2022-07-27T04:40:58.469Z,96998.00
2022-07-27T04:43:25.501Z,96997.00
2022-07-27T04:45:56.696Z,96999.00
2022-07-27T04:48:23.607Z,97000.00
2022-07-27T04:50:50.666Z,97003.00
2022-07-27T04:53:17.682Z,97003.00
2022-07-27T04:55:46.863Z,97003.00
2022-07-27T04:58:15.084Z,97002.00
2022-07-27T05:00:43.605Z,97004.00
2022-07-27T05:03:11.217Z,97008.00
2022-07-27T05:05:38.726Z,97003.00
2022-07-27T05:08:06.607Z,97007.00
2022-07-27T05:10:33.743Z,96998.00
2022-07-27T05:13:01.462Z,96998.00
2022-07-27T05:15:29.617Z,97009.00
2022-07-27T05:18:16.511Z,97010.00
2022-07-27T05:20:43.507Z,97013.00
2022-07-27T05:23:11.186Z,97009.00
2022-07-27T05:25:38.519Z,97008.00
2022-07-27T05:28:05.699Z,97008.00
2022-07-27T05:30:32.723Z,97008.00
2022-07-27T05:33:00.683Z,97018.00
2022-07-27T05:35:27.578Z,97015.00
2022-07-27T05:37:54.445Z,97013.00
2022-07-27T05:40:21.300Z,97024.00
2022-07-27T05:42:48.742Z,97020.00
2022-07-27T05:45:15.703Z,97026.00
2022-07-27T05:47:42.595Z,97032.00
2022-07-27T05:50:09.999Z,97030.00
2022-07-27T05:52:38.175Z,97035.00
2022-07-27T05:55:06.448Z,97028.00
2022-07-27T05:57:33.387Z,97035.00
2022-07-27T06:00:01.494Z,97031.00
2022-07-27T06:02:31.493Z,97031.00
2022-07-27T06:04:58.506Z,97032.00
2022-07-27T06:07:57.488Z,97042.00
2022-07-27T06:10:25.368Z,97047.00
2022-07-27T06:12:52.243Z,97050.00
2022-07-27T06:15:20.066Z,97055.00
2022-07-27T06:17:49.036Z,97050.00
2022-07-27T06:20:16.353Z,97046.00
2022-07-27T06:23:07.771Z,97042.00
2022-07-27T06:25:36.188Z,97043.00
2022-07-27T06:28:05.700Z,97040.00
2022-07-27T06:30:33.401Z,97044.00
2022-07-27T06:33:00.849Z,97038.00
2022-07-27T06:35:27.731Z,97039.00
2022-07-27T06:37:54.875Z,97039.00
2022-07-27T06:40:21.946Z,97042.00
2022-07-27T06:42:48.812Z,97043.00
2022-07-27T06:45:16.584Z,97044.00
2022-07-27T06:47:49.054Z,97047.00
2022-07-27T06:50:18.620Z,97048.00
2022-07-27T06:52:46.901Z,97045.00
2022-07-27T06:55:14.740Z,97050.00
2022-07-27T06:57:42.886Z,97052.00
2022-07-27T07:00:13.006Z,97049.00
2022-07-27T07:02:55.543Z,97054.00
2022-07-27T07:05:23.263Z,97042.00
2022-07-27T07:07:50.218Z,97041.00
2022-07-27T07:10:18.335Z,97050.00
2022-07-27T07:12:45.207Z,97048.00
2022-07-27T07:15:13.309Z,97044.00
2022-07-27T07:17:40.982Z,97048.00
2022-07-27T07:20:08.901Z,97037.00
2022-07-27T07:22:35.866Z,97045.00
2022-07-27T07:25:03.559Z,97044.00
2022-07-27T07:27:30.494Z,97044.00
2022-07-27T07:29:57.332Z,97044.00
2022-07-27T07:32:27.740Z,97042.00
2022-07-27T07:34:58.560Z,97037.00
2022-07-27T07:37:33.754Z,97034.00
2022-07-27T07:40:13.003Z,97034.00
2022-07-27T07:42:55.378Z,97035.00
2022-07-27T07:45:24.507Z,97039.00
2022-07-27T07:47:52.499Z,97039.00
2022-07-27T07:50:20.368Z,97037.00
2022-07-27T07:52:52.941Z,97036.00
2022-07-27T07:55:23.265Z,97040.00
2022-07-27T07:57:50.692Z,97033.00
2022-07-27T08:00:19.521Z,97040.00
2022-07-27T08:02:52.524Z,97038.00
2022-07-27T08:05:20.652Z,97039.00
2022-07-27T08:07:48.225Z,97038.00
2022-07-27T08:10:17.307Z,97035.00
2022-07-27T08:12:47.463Z,97032.00
2022-07-27T08:15:16.251Z,97029.00
2022-07-27T08:17:43.744Z,97036.00
2022-07-27T08:20:12.339Z,97041.00
2022-07-27T08:22:39.495Z,97034.00
2022-07-27T08:25:07.527Z,97038.00
2022-07-27T08:27:40.344Z,97034.00
2022-07-27T08:30:10.525Z,97035.00
2022-07-27T08:32:57.732Z,97036.00
2022-07-27T08:35:25.293Z,97034.00
2022-07-27T08:37:52.314Z,97027.00
2022-07-27T08:43:08.012Z,97014.00
2022-07-27T08:45:35.660Z,97019.00
2022-07-27T08:48:03.586Z,97012.00
2022-07-27T08:50:30.999Z,97018.00
2022-07-27T08:53:07.149Z,97007.00
2022-07-27T08:55:43.870Z,97017.00
2022-07-27T08:58:13.080Z,97010.00
2022-07-27T09:00:47.099Z,97004.00
2022-07-27T09:03:19.442Z,97007.00
2022-07-27T09:05:55.989Z,96998.00
2022-07-27T09:08:26.411Z,97004.00
2022-07-27T09:10:56.390Z,97006.00
2022-07-27T09:13:34.257Z,97006.00
2022-07-27T09:16:20.027Z,97001.00
2022-07-27T09:18:48.287Z,97003.00
2022-07-27T09:21:20.920Z,96998.00
2022-07-27T09:23:50.538Z,96996.00
2022-07-27T09:26:33.142Z,96990.00
2022-07-27T09:29:11.645Z,97000.00
2022-07-27T09:31:43.197Z,96991.00
2022-07-27T09:34:11.371Z,96992.00
2022-07-27T09:36:57.173Z,97000.00
2022-07-27T09:39:27.647Z,96997.00
2022-07-27T09:42:00.001Z,96996.00
2022-07-27T09:44:44.826Z,96993.00
2022-07-27T09:47:31.235Z,96993.00
2022-07-27T09:50:19.616Z,96990.00
2022-07-27T09:52:47.418Z,96986.00
2022-07-27T09:55:14.689Z,96984.00
2022-07-27T09:57:56.408Z,96990.00
2022-07-27T10:00:25.264Z,96987.00
2022-07-27T10:02:53.907Z,96987.00
2022-07-27T10:05:22.823Z,96987.00
2022-07-27T10:07:54.750Z,96988.00
2022-07-27T10:10:23.431Z,96984.00
2022-07-27T10:12:55.271Z,96993.00
2022-07-27T10:15:24.281Z,96997.00
2022-07-27T10:18:08.243Z,96990.00
2022-07-27T10:20:39.942Z,96991.00
2022-07-27T10:23:07.288Z,96990.00
2022-07-27T10:25:37.898Z,96993.00
2022-07-27T10:28:17.589Z,96996.00
2022-07-27T10:30:49.417Z,96998.00
2022-07-27T10:33:45.349Z,97005.00
2022-07-27T10:36:24.447Z,97003.00
2022-07-27T10:38:58.549Z,97007.00
2022-07-27T10:41:27.435Z,97012.00
2022-07-27T10:44:17.776Z,97004.00
2022-07-27T10:47:03.598Z,97012.00
2022-07-27T10:49:40.466Z,97013.00
2022-07-27T10:53:04.888Z,97019.00
2022-07-27T10:55:32.120Z,97014.00
2022-07-27T10:58:22.124Z,97017.00
2022-07-27T11:00:54.563Z,97009.00
2022-07-27T11:03:42.589Z,97014.00
2022-07-27T11:06:33.174Z,97015.00
2022-07-27T11:10:02.535Z,97015.00
2022-07-27T11:11:54.509Z,97003.00
2022-07-27T11:14:30.732Z,96998.00
2022-07-27T11:17:24.510Z,97004.00
2022-07-27T11:20:02.304Z,97009.00
2022-07-27T11:23:14.097Z,97016.00
2022-07-27T11:25:24.897Z,97024.00
2022-07-27T11:27:53.990Z,97024.00
2022-07-27T11:30:27.225Z,97026.00
2022-07-27T11:32:55.865Z,97033.00
2022-07-27T11:35:24.212Z,97036.00
2022-07-27T11:38:03.892Z,97042.00
2022-07-27T11:40:56.191Z,97041.00
2022-07-27T11:43:45.255Z,97047.00
2022-07-27T11:46:33.157Z,97051.00
2022-07-27T11:49:07.832Z,97047.00
2022-07-27T11:51:47.214Z,97061.00
2022-07-27T11:54:26.616Z,97062.00
2022-07-27T11:57:04.863Z,97053.00
2022-07-27T11:59:35.118Z,97057.00
2022-07-27T12:02:14.733Z,97047.00
2022-07-27T12:04:47.773Z,97043.00
2022-07-27T12:07:19.860Z,97056.00
2022-07-27T12:10:02.366Z,97058.00
2022-07-27T12:12:35.224Z,97058.00
2022-07-27T12:15:44.147Z,97056.00
2022-07-27T12:18:00.868Z,97054.00
2022-07-27T12:20:36.588Z,97050.00
2022-07-27T12:23:07.153Z,97049.00
2022-07-27T12:25:35.296Z,97056.00
2022-07-27T12:28:17.954Z,97054.00
2022-07-27T12:30:49.151Z,97060.00
2022-07-27T12:33:29.465Z,97054.00
2022-07-27T12:35:58.003Z,97058.00
2022-07-27T12:38:25.540Z,97057.00
2022-07-27T12:41:01.207Z,97055.00
2022-07-27T12:43:29.363Z,97075.00
2022-07-27T12:45:56.297Z,97087.00
2022-07-27T12:48:27.731Z,97094.00
2022-07-27T12:51:04.947Z,97089.00
2022-07-27T12:53:34.837Z,97098.00
2022-07-27T12:56:09.875Z,97098.00
2022-07-27T12:58:37.921Z,97099.00
2022-07-27T13:01:05.983Z,97110.00
2022-07-27T13:03:33.294Z,97111.00
2022-07-27T13:06:06.685Z,97108.00
2022-07-27T13:08:37.625Z,97103.00
2022-07-27T13:11:04.513Z,97116.00
2022-07-27T13:13:31.452Z,97105.00
2022-07-27T13:15:58.369Z,97106.00
2022-07-27T13:18:25.426Z,97114.00
2022-07-27T13:20:52.643Z,97114.00
2022-07-27T13:23:19.600Z,97109.00
2022-07-27T13:25:46.418Z,97115.00
2022-07-27T13:28:13.374Z,97113.00
2022-07-27T13:30:40.439Z,97110.00
2022-07-27T13:33:07.577Z,97114.00
2022-07-27T13:35:34.499Z,97099.00
2022-07-27T13:38:01.772Z,97095.00
2022-07-27T13:40:30.085Z,97091.00
2022-07-27T13:42:58.065Z,97102.00
2022-07-27T13:45:25.369Z,97103.00
2022-07-27T13:47:53.827Z,97111.00
2022-07-27T13:50:22.139Z,97106.00
2022-07-27T13:52:49.139Z,97099.00
2022-07-27T13:55:17.285Z,97105.00
2022-07-27T13:57:44.939Z,97103.00
2022-07-27T14:00:13.438Z,97086.00
2022-07-27T14:02:40.979Z,97089.00
2022-07-27T14:05:13.167Z,97084.00
2022-07-27T14:07:42.436Z,97097.00
2022-07-27T14:10:28.842Z,97097.00
2022-07-27T14:13:07.876Z,97099.00
2022-07-27T14:15:52.887Z,97095.00
2022-07-27T14:18:21.102Z,97096.00
2022-07-27T14:20:47.955Z,97094.00
2022-07-27T14:23:14.789Z,97094.00
2022-07-27T14:25:41.674Z,97094.00
2022-07-27T14:28:08.547Z,97095.00
2022-07-27T14:30:35.419Z,97101.00
2022-07-27T14:33:03.037Z,97095.00
2022-07-27T14:35:30.548Z,97086.00
2022-07-27T14:38:00.116Z,97084.00
2022-07-27T14:40:27.760Z,97071.00
2022-07-27T14:42:55.151Z,97078.00
2022-07-27T14:45:22.046Z,97080.00
2022-07-27T14:47:48.852Z,97067.00
2022-07-27T14:50:15.774Z,97082.00
2022-07-27T14:52:42.696Z,97091.00
2022-07-27T14:55:10.125Z,97101.00
2022-07-27T14:57:37.111Z,97099.00
2022-07-27T15:00:10.352Z,97086.00
2022-07-27T15:02:38.860Z,97093.00
2022-07-27T15:05:06.803Z,97102.00
2022-07-27T15:07:34.705Z,97109.00
2022-07-27T15:10:02.742Z,97104.00
2022-07-27T15:12:30.031Z,97113.00
2022-07-27T15:14:58.005Z,97107.00
2022-07-27T15:17:24.860Z,97110.00
2022-07-27T15:19:52.245Z,97104.00
2022-07-27T15:22:19.658Z,97111.00
2022-07-27T15:24:46.555Z,97115.00
2022-07-27T15:27:14.032Z,97114.00
2022-07-27T15:29:41.598Z,97110.00
2022-07-27T15:32:09.979Z,97112.00
2022-07-27T15:34:37.434Z,97101.00
2022-07-27T15:37:07.374Z,97102.00
2022-07-27T15:39:40.634Z,97116.00
2022-07-27T15:42:08.511Z,97111.00
2022-07-27T15:44:36.540Z,97108.00
2022-07-27T15:47:04.181Z,97115.00
2022-07-27T15:49:31.238Z,97108.00
2022-07-27T15:51:58.178Z,97111.00
2022-07-27T15:54:26.439Z,97106.00
2022-07-27T15:56:57.840Z,97096.00
2022-07-27T15:59:24.974Z,97091.00
2022-07-27T16:01:53.720Z,97095.00
2022-07-27T16:04:21.441Z,97104.00
2022-07-27T16:06:48.784Z,97095.00
2022-07-27T16:09:17.237Z,97094.00
2022-07-27T16:11:45.710Z,97100.00
2022-07-27T16:14:12.541Z,97092.00
2022-07-27T16:16:39.500Z,97094.00
2022-07-27T16:19:12.376Z,97089.00
2022-07-27T16:21:54.985Z,97090.00
2022-07-27T16:24:24.038Z,97086.00
2022-07-27T16:26:51.560Z,97081.00
2022-07-27T16:29:19.093Z,97084.00
2022-07-27T16:31:46.093Z,97091.00
2022-07-27T16:34:12.976Z,97088.00
2022-07-27T16:36:39.845Z,97082.00
2022-07-27T16:39:06.754Z,97078.00
2022-07-27T16:41:33.933Z,97082.00
2022-07-27T16:44:00.830Z,97082.00
2022-07-27T16:46:27.755Z,97083.00
2022-07-27T16:48:54.764Z,97083.00
2022-07-27T16:51:21.750Z,97075.00
2022-07-27T16:53:48.596Z,97080.00
2022-07-27T16:56:16.688Z,97076.00
2022-07-27T16:58:44.482Z,97071.00
2022-07-27T17:01:21.952Z,97075.00
2022-07-27T17:03:54.851Z,97070.00
2022-07-27T17:06:22.393Z,97077.00
2022-07-27T17:08:49.592Z,97075.00
2022-07-27T17:11:21.607Z,97071.00
2022-07-27T17:13:51.376Z,97070.00
2022-07-27T17:16:26.709Z,97073.00
2022-07-27T17:18:53.564Z,97079.00
2022-07-27T17:21:20.481Z,97084.00
2022-07-27T17:23:48.385Z,97084.00
2022-07-27T17:26:15.333Z,97081.00
2022-07-27T17:28:42.354Z,97079.00
2022-07-27T17:31:12.659Z,97084.00
2022-07-27T17:33:41.131Z,97086.00
2022-07-27T17:36:14.488Z,97081.00
2022-07-27T17:38:47.978Z,97084.00
2022-07-27T17:41:23.780Z,97082.00
2022-07-27T17:43:52.695Z,97085.00
2022-07-27T17:46:19.870Z,97091.00
2022-07-27T17:48:46.836Z,97090.00
2022-07-27T17:51:13.851Z,97092.00
2022-07-27T17:53:40.703Z,97082.00
2022-07-27T17:56:08.538Z,97089.00
2022-07-27T17:58:37.135Z,97092.00
2022-07-27T18:01:06.831Z,97090.00
2022-07-27T18:03:34.171Z,97099.00
2022-07-27T18:06:01.757Z,97093.00
2022-07-27T18:08:28.872Z,97096.00
2022-07-27T18:10:55.997Z,97104.00
2022-07-27T18:13:22.843Z,97106.00
2022-07-27T18:15:55.461Z,97103.00
2022-07-27T18:18:27.429Z,97110.00
2022-07-27T18:20:56.412Z,97115.00
2022-07-27T18:23:26.191Z,97102.00
2022-07-27T18:25:53.246Z,97112.00
2022-07-27T18:28:21.206Z,97116.00
2022-07-27T18:30:52.362Z,97120.00
2022-07-27T18:33:21.785Z,97126.00
2022-07-27T18:35:49.233Z,97129.00
2022-07-27T18:38:17.120Z,97125.00
2022-07-27T18:40:47.446Z,97123.00
2022-07-27T18:43:16.022Z,97132.00
2022-07-27T18:45:43.238Z,97141.00
2022-07-27T18:48:10.870Z,97131.00
2022-07-27T18:50:39.990Z,97133.00
2022-07-27T18:53:09.353Z,97137.00
2022-07-27T18:55:36.981Z,97133.00
2022-07-27T18:58:04.838Z,97142.00
2022-07-27T19:00:33.749Z,97145.00
2022-07-27T19:03:00.801Z,97152.00
2022-07-27T19:05:32.191Z,97149.00
2022-07-27T19:08:11.333Z,97169.00
2022-07-27T19:10:41.584Z,97166.00
2022-07-27T19:13:09.118Z,97167.00
2022-07-27T19:15:36.418Z,97172.00
2022-07-27T19:18:04.890Z,97175.00
2022-07-27T19:20:32.249Z,97174.00
2022-07-27T19:23:00.644Z,97178.00
2022-07-27T19:25:30.165Z,97176.00
2022-07-27T19:27:57.482Z,97176.00
2022-07-27T19:30:24.503Z,97177.00
2022-07-27T19:32:51.854Z,97176.00
2022-07-27T19:35:18.753Z,97182.00
2022-07-27T19:37:45.685Z,97186.00
2022-07-27T19:42:59.770Z,97183.00
2022-07-27T19:45:26.660Z,97187.00
2022-07-27T19:47:53.495Z,97186.00
2022-07-27T19:50:20.678Z,97191.00
2022-07-27T19:52:47.619Z,97186.00
2022-07-27T19:55:14.867Z,97194.00
2022-07-27T19:57:41.717Z,97198.00
2022-07-27T20:00:10.147Z,97196.00
2022-07-27T20:02:37.364Z,97205.00
2022-07-27T20:05:04.867Z,97202.00
2022-07-27T20:07:31.715Z,97203.00
2022-07-27T20:09:58.983Z,97212.00
2022-07-27T20:12:26.019Z,97212.00
2022-07-27T20:14:52.986Z,97214.00
2022-07-27T20:17:19.845Z,97213.00
2022-07-27T20:19:46.885Z,97209.00
2022-07-27T20:22:13.755Z,97217.00
2022-07-27T20:24:40.640Z,97221.00
2022-07-27T20:27:07.503Z,97222.00
2022-07-27T20:29:34.379Z,97226.00
2022-07-27T20:32:01.228Z,97233.00
2022-07-27T20:34:28.459Z,97229.00
2022-07-27T20:36:55.682Z,97236.00
2022-07-27T20:39:25.286Z,97240.00
2022-07-27T20:41:52.617Z,97233.00
2022-07-27T20:44:20.862Z,97236.00
2022-07-27T20:46:48.202Z,97239.00
2022-07-27T20:49:16.888Z,97239.00
2022-07-27T20:51:44.591Z,97237.00
2022-07-27T20:54:11.508Z,97241.00
2022-07-27T20:56:38.364Z,97240.00
2022-07-27T20:59:07.768Z,97237.00
2022-07-27T21:01:42.359Z,97244.00
2022-07-27T21:04:10.244Z,97245.00
2022-07-27T21:06:37.060Z,97238.00
2022-07-27T21:09:05.200Z,97244.00
2022-07-27T21:11:32.495Z,97247.00
2022-07-27T21:13:59.355Z,97247.00
2022-07-27T21:16:27.248Z,97253.00
2022-07-27T21:18:54.885Z,97258.00
2022-07-27T21:21:27.468Z,97257.00
2022-07-27T21:24:14.547Z,97258.00
2022-07-27T21:26:48.799Z,97257.00
2022-07-27T21:29:16.400Z,97260.00
2022-07-27T21:31:49.052Z,97257.00
2022-07-27T21:34:19.899Z,97265.00
2022-07-27T21:36:48.048Z,97266.00
2022-07-27T21:39:15.124Z,97259.00
2022-07-27T21:41:42.053Z,97255.00
2022-07-27T21:44:09.515Z,97268.00
2022-07-27T21:46:36.674Z,97263.00
2022-07-27T21:49:04.583Z,97266.00
2022-07-27T21:51:31.628Z,97268.00
2022-07-27T21:53:58.686Z,97270.00
2022-07-27T21:56:25.579Z,97278.00
2022-07-27T21:58:52.453Z,97273.00
2022-07-27T22:01:19.624Z,97271.00
2022-07-27T22:03:47.028Z,97266.00
2022-07-27T22:06:14.178Z,97265.00
2022-07-27T22:08:42.334Z,97260.00
2022-07-27T22:11:09.746Z,97270.00
2022-07-27T22:13:36.596Z,97265.00
2022-07-27T22:16:04.895Z,97264.00
2022-07-27T22:18:32.344Z,97266.00
2022-07-27T22:20:59.227Z,97264.00
2022-07-27T22:23:26.214Z,97265.00
2022-07-27T22:25:53.203Z,97259.00
2022-07-27T22:28:20.639Z,97257.00
2022-07-27T22:30:59.548Z,97261.00
2022-07-27T22:33:39.854Z,97265.00
2022-07-27T22:36:11.946Z,97262.00
2022-07-27T22:38:39.231Z,97278.00
2022-07-27T22:41:06.107Z,97275.00
2022-07-27T22:43:32.961Z,97273.00
2022-07-27T22:46:00.288Z,97273.00
2022-07-27T22:48:27.308Z,97265.00
2022-07-27T22:50:54.274Z,97273.00
2022-07-27T22:53:21.352Z,97271.00
2022-07-27T22:55:48.386Z,97271.00
2022-07-27T22:58:16.220Z,97277.00
2022-07-27T23:00:43.178Z,97271.00
2022-07-27T23:03:10.022Z,97271.00
2022-07-27T23:05:36.943Z,97274.00
2022-07-27T23:08:03.914Z,97277.00
2022-07-27T23:10:45.628Z,97274.00
2022-07-27T23:13:19.125Z,97274.00
2022-07-27T23:15:47.011Z,97277.00
2022-07-27T23:18:14.864Z,97279.00
2022-07-27T23:20:42.130Z,97279.00
2022-07-27T23:23:15.789Z,97278.00
2022-07-27T23:25:45.511Z,97276.00
2022-07-27T23:28:14.267Z,97279.00
2022-07-27T23:30:41.119Z,97276.00
2022-07-27T23:33:08.049Z,97278.00
2022-07-27T23:35:34.938Z,97272.00
2022-07-27T23:38:01.852Z,97282.00
2022-07-27T23:40:28.728Z,97275.00
2022-07-27T23:42:55.566Z,97271.00
2022-07-27T23:45:22.473Z,97267.00
2022-07-27T23:47:49.364Z,97267.00
2022-07-27T23:50:16.235Z,97269.00
2022-07-27T23:52:43.118Z,97265.00
2022-07-27T23:55:10.015Z,97263.00
2022-07-27T23:57:37.210Z,97261.00
